createdAt,value
2023-11-24T00:00:11.110Z,98436.22
2023-11-24T00:03:16.494Z,98429.53
2023-11-24T00:06:18.852Z,98416.38
2023-11-24T00:09:22.808Z,98401.31
2023-11-24T00:12:26.278Z,98403.72
2023-11-24T00:15:28.684Z,98396.13
2023-11-24T00:18:31.590Z,98396.88
2023-11-24T00:21:37.344Z,98383.97
2023-11-24T00:24:39.748Z,98383.75
2023-11-24T00:27:42.654Z,98372.97
2023-11-24T00:30:44.968Z,98364.63
2023-11-24T00:33:48.718Z,98366.00
2023-11-24T00:36:51.625Z,98350.06
2023-11-24T00:39:54.117Z,98350.59
2023-11-24T00:42:56.641Z,98349.81
2023-11-24T00:45:58.990Z,98339.06
2023-11-24T00:49:01.418Z,98344.00
2023-11-24T00:52:03.980Z,98336.31
2023-11-24T00:55:06.857Z,98340.75
2023-11-24T00:58:09.879Z,98343.28
2023-11-24T01:01:13.031Z,98332.03
2023-11-24T01:04:17.189Z,98329.72
2023-11-24T01:07:19.706Z,98334.78
2023-11-24T01:10:22.901Z,98324.28
2023-11-24T01:13:26.017Z,98321.53
2023-11-24T01:16:28.317Z,98309.63
2023-11-24T01:19:30.482Z,98300.94
2023-11-24T01:22:32.721Z,98297.91
2023-11-24T01:25:35.008Z,98285.75
2023-11-24T01:28:37.173Z,98275.75
2023-11-24T01:31:40.702Z,98258.44
2023-11-24T01:34:43.005Z,98247.19
2023-11-24T01:37:45.694Z,98225.94
2023-11-24T01:40:48.009Z,98211.47
2023-11-24T01:44:01.305Z,98209.84
2023-11-24T01:47:04.473Z,98200.56
2023-11-24T01:50:08.907Z,98194.56
2023-11-24T01:53:11.687Z,98178.66
2023-11-24T01:56:14.250Z,98178.16
2023-11-24T01:59:16.687Z,98181.16
2023-11-24T02:02:22.062Z,98166.91
2023-11-24T02:05:25.257Z,98157.97
2023-11-24T02:08:29.555Z,98150.72
2023-11-24T02:11:31.843Z,98142.72
2023-11-24T02:14:34.147Z,98126.53
2023-11-24T02:17:37.352Z,98136.63
2023-11-24T02:20:40.157Z,98137.50
2023-11-24T02:23:43.651Z,98143.72
2023-11-24T02:26:46.700Z,98130.81
2023-11-24T02:29:52.239Z,98123.50
2023-11-24T02:32:54.598Z,98113.41
2023-11-24T02:35:57.807Z,98110.00
2023-11-24T02:39:00.102Z,98105.38
2023-11-24T02:42:02.370Z,98086.13
2023-11-24T02:45:04.800Z,98077.56
2023-11-24T02:48:07.064Z,98066.97
2023-11-24T02:51:10.232Z,98056.06
2023-11-24T02:54:12.552Z,98059.91
2023-11-24T02:57:15.499Z,98052.41
2023-11-24T03:00:19.419Z,98050.44
2023-11-24T03:03:21.905Z,98046.16
2023-11-24T03:06:24.285Z,98036.22
2023-11-24T03:09:27.284Z,98046.91
2023-11-24T03:12:29.882Z,98042.34
2023-11-24T03:15:32.469Z,98035.19
2023-11-24T03:18:35.093Z,98031.78
2023-11-24T03:21:37.919Z,98036.72
2023-11-24T03:24:40.401Z,98031.59
2023-11-24T03:27:42.785Z,98021.72
2023-11-24T03:30:45.735Z,98016.75
2023-11-24T03:33:48.161Z,98005.78
2023-11-24T03:36:50.858Z,97993.81
2023-11-24T03:39:54.276Z,97983.88
2023-11-24T03:42:56.675Z,97993.75
2023-11-24T03:45:59.062Z,97980.19
2023-11-24T03:49:01.265Z,97972.25
2023-11-24T03:52:04.668Z,97956.47
2023-11-24T03:55:08.839Z,97959.44
2023-11-24T03:58:11.257Z,97956.72
2023-11-24T04:01:16.815Z,97950.88
2023-11-24T04:04:19.285Z,97940.44
2023-11-24T04:07:21.621Z,97925.16
2023-11-24T04:10:24.210Z,97916.25
2023-11-24T04:13:27.538Z,97905.16
2023-11-24T04:16:30.874Z,97902.66
2023-11-24T04:19:34.219Z,97896.94
2023-11-24T04:22:38.610Z,97888.88
2023-11-24T04:25:44.912Z,97882.03
2023-11-24T04:28:47.350Z,97884.34
2023-11-24T04:31:49.668Z,97871.81
2023-11-24T04:34:52.152Z,97864.66
2023-11-24T04:37:54.426Z,97861.22
2023-11-24T04:40:56.822Z,97855.28
2023-11-24T04:43:59.002Z,97854.88
2023-11-24T04:47:01.231Z,97855.97
2023-11-24T04:50:03.669Z,97843.50
2023-11-24T04:53:06.015Z,97830.84
2023-11-24T04:56:08.426Z,97815.00
2023-11-24T04:59:11.523Z,97819.84
2023-11-24T05:02:13.916Z,97819.31
2023-11-24T05:05:18.498Z,97807.88
2023-11-24T05:08:20.818Z,97818.41
2023-11-24T05:11:25.632Z,97812.13
2023-11-24T05:14:27.904Z,97795.28
2023-11-24T05:17:30.356Z,97794.06
2023-11-24T05:20:32.744Z,97796.91
2023-11-24T05:23:35.250Z,97795.25
2023-11-24T05:26:38.769Z,97782.03
2023-11-24T05:29:41.021Z,97783.59
2023-11-24T05:32:45.577Z,97777.44
2023-11-24T05:35:47.839Z,97774.13
2023-11-24T05:38:49.986Z,97750.06
2023-11-24T05:41:52.220Z,97754.09
2023-11-24T05:44:54.529Z,97743.31
2023-11-24T05:47:56.710Z,97746.94
2023-11-24T05:51:00.560Z,97743.06
2023-11-24T05:54:02.972Z,97738.19
2023-11-24T05:57:06.078Z,97730.88
2023-11-24T06:00:09.801Z,97726.81
2023-11-24T06:03:15.079Z,97727.03
2023-11-24T06:06:17.383Z,97733.06
2023-11-24T06:09:20.002Z,97737.47
2023-11-24T06:12:23.248Z,97739.63
2023-11-24T06:15:25.711Z,97745.25
2023-11-24T06:18:28.103Z,97741.16
2023-11-24T06:21:30.727Z,97739.19
2023-11-24T06:24:33.109Z,97732.84
2023-11-24T06:27:35.564Z,97737.91
2023-11-24T06:30:39.996Z,97749.25
2023-11-24T06:33:42.607Z,97748.75
2023-11-24T06:36:45.199Z,97761.78
2023-11-24T06:39:48.141Z,97758.94
2023-11-24T06:42:50.516Z,97769.06
2023-11-24T06:45:53.060Z,97753.28
2023-11-24T06:48:55.444Z,97765.34
2023-11-24T06:51:58.044Z,97770.78
2023-11-24T06:55:00.549Z,97774.63
2023-11-24T06:58:02.950Z,97769.47
2023-11-24T07:01:08.500Z,97771.16
2023-11-24T07:04:11.075Z,97775.44
2023-11-24T07:07:14.139Z,97750.53
2023-11-24T07:10:16.543Z,97759.78
2023-11-24T07:13:18.908Z,97769.63
2023-11-24T07:16:21.379Z,97765.28
2023-11-24T07:19:23.980Z,97756.28
2023-11-24T07:22:26.345Z,97770.06
2023-11-24T07:25:28.638Z,97760.94
2023-11-24T07:28:30.949Z,97771.38
2023-11-24T07:31:33.287Z,97766.13
2023-11-24T07:34:35.643Z,97767.69
2023-11-24T07:37:39.923Z,97766.97
2023-11-24T07:40:42.308Z,97765.47
2023-11-24T07:43:44.654Z,97761.97
2023-11-24T07:46:47.019Z,97764.00
2023-11-24T07:49:49.378Z,97758.81
2023-11-24T07:52:54.510Z,97764.53
2023-11-24T07:55:58.008Z,97769.75
2023-11-24T07:59:00.429Z,97768.34
2023-11-24T08:02:03.997Z,97769.78
2023-11-24T08:05:06.611Z,97773.13
2023-11-24T08:08:09.272Z,97768.59
2023-11-24T08:11:12.191Z,97774.84
2023-11-24T08:14:15.426Z,97773.19
2023-11-24T08:17:17.827Z,97771.78
2023-11-24T08:20:20.368Z,97768.13
2023-11-24T08:23:22.686Z,97763.16
2023-11-24T08:26:25.110Z,97766.13
2023-11-24T08:29:27.758Z,97759.88
2023-11-24T08:32:30.106Z,97746.78
2023-11-24T08:35:32.499Z,97742.44
2023-11-24T08:38:35.140Z,97742.03
2023-11-24T08:41:40.658Z,97739.06
2023-11-24T08:44:43.297Z,97726.84
2023-11-24T08:47:47.821Z,97709.88
2023-11-24T08:50:50.184Z,97693.88
2023-11-24T08:53:52.477Z,97684.75
2023-11-24T08:56:54.827Z,97686.75
2023-11-24T08:59:57.094Z,97699.50
2023-11-24T09:03:00.994Z,97693.88
2023-11-24T09:06:03.861Z,97686.66
2023-11-24T09:09:10.079Z,97690.47
2023-11-24T09:12:13.851Z,97683.94
2023-11-24T09:15:16.279Z,97684.59
2023-11-24T09:18:18.681Z,97674.03
2023-11-24T09:21:21.870Z,97685.81
2023-11-24T09:24:24.368Z,97686.31
2023-11-24T09:27:28.151Z,97683.91
2023-11-24T09:30:40.748Z,97673.16
2023-11-24T09:33:43.413Z,97664.00
2023-11-24T09:36:47.427Z,97667.78
2023-11-24T09:39:50.071Z,97653.19
2023-11-24T09:42:52.741Z,97642.91
2023-11-24T09:45:57.287Z,97645.72
2023-11-24T09:49:00.095Z,97644.53
2023-11-24T09:52:03.475Z,97654.66
2023-11-24T09:55:06.457Z,97662.19
2023-11-24T09:58:08.834Z,97668.69
2023-11-24T10:01:28.257Z,97666.91
2023-11-24T10:04:30.823Z,97646.41
2023-11-24T10:07:35.385Z,97655.91
2023-11-24T10:10:38.100Z,97660.19
2023-11-24T10:13:45.407Z,97653.78
2023-11-24T10:16:49.770Z,97642.69
2023-11-24T10:19:54.965Z,97642.38
2023-11-24T10:22:59.644Z,97635.38
2023-11-24T10:26:02.652Z,97665.84
2023-11-24T10:29:04.970Z,97628.25
2023-11-24T10:32:07.811Z,97627.13
2023-11-24T10:35:12.980Z,97621.13
2023-11-24T10:38:21.501Z,97631.56
2023-11-24T10:41:25.239Z,97622.78
2023-11-24T10:44:27.608Z,97625.38
2023-11-24T10:47:58.350Z,97614.66
2023-11-24T10:51:05.904Z,97616.81
2023-11-24T10:54:09.094Z,97632.06
2023-11-24T10:57:12.404Z,97615.72
2023-11-24T11:00:21.748Z,97599.69
2023-11-24T11:03:24.120Z,97575.75
2023-11-24T11:06:26.851Z,97567.13
2023-11-24T11:10:05.225Z,97562.97
2023-11-24T11:13:07.684Z,97573.50
2023-11-24T11:16:13.696Z,97583.94
2023-11-24T11:19:34.607Z,97584.25
2023-11-24T11:22:38.051Z,97590.50
2023-11-24T11:25:43.601Z,97601.00
2023-11-24T11:28:47.981Z,97586.34
2023-11-24T11:31:55.064Z,97582.78
2023-11-24T11:34:57.584Z,97593.28
2023-11-24T11:38:04.250Z,97577.56
2023-11-24T11:41:06.557Z,97569.22
2023-11-24T11:44:37.721Z,97559.88
2023-11-24T11:47:50.940Z,97579.84
2023-11-24T11:51:01.759Z,97576.13
2023-11-24T11:54:06.297Z,97563.78
2023-11-24T11:57:09.003Z,97537.22
2023-11-24T12:00:11.831Z,97530.66
2023-11-24T12:03:14.376Z,97532.63
2023-11-24T12:06:16.882Z,97535.53
2023-11-24T12:09:20.764Z,97547.19
2023-11-24T12:12:24.426Z,97534.56
2023-11-24T12:15:26.769Z,97512.16
2023-11-24T12:18:29.446Z,97502.72
2023-11-24T12:21:32.752Z,97533.16
2023-11-24T12:24:37.503Z,97552.28
2023-11-24T12:27:46.047Z,97532.47
2023-11-24T12:30:49.416Z,97572.69
2023-11-24T12:33:53.174Z,97568.88
2023-11-24T12:36:56.239Z,97563.84
2023-11-24T12:39:58.782Z,97566.22
2023-11-24T12:43:02.018Z,97573.28
2023-11-24T12:46:04.788Z,97561.06
2023-11-24T12:49:10.438Z,97547.06
2023-11-24T12:55:16.329Z,97571.75
2023-11-24T12:58:18.680Z,97573.88
2023-11-24T13:01:21.024Z,97560.91
2023-11-24T13:04:24.987Z,97564.03
2023-11-24T13:07:27.586Z,97557.53
2023-11-24T13:10:40.289Z,97555.03
2023-11-24T13:13:46.207Z,97551.16
2023-11-24T13:16:49.780Z,97557.13
2023-11-24T13:19:53.530Z,97513.94
2023-11-24T13:22:55.954Z,97510.44
2023-11-24T13:25:58.222Z,97506.28
2023-11-24T13:29:00.639Z,97506.13
2023-11-24T13:32:04.183Z,97505.72
2023-11-24T13:35:06.899Z,97501.69
2023-11-24T13:38:10.840Z,97502.25
2023-11-24T13:41:13.383Z,97521.41
2023-11-24T13:44:15.736Z,97524.41
2023-11-24T13:47:18.632Z,97520.66
2023-11-24T13:50:21.652Z,97507.34
2023-11-24T13:53:23.987Z,97507.19
2023-11-24T13:56:26.265Z,97499.19
2023-11-24T13:59:30.389Z,97489.56
2023-11-24T14:02:32.833Z,97467.94
2023-11-24T14:05:35.372Z,97451.91
2023-11-24T14:08:39.382Z,97452.22
2023-11-24T14:11:41.707Z,97448.94
2023-11-24T14:14:44.469Z,97470.50
2023-11-24T14:17:46.945Z,97477.75
2023-11-24T14:20:52.151Z,97459.72
2023-11-24T14:23:54.480Z,97458.56
2023-11-24T14:26:57.634Z,97459.25
2023-11-24T14:29:59.921Z,97471.78
2023-11-24T14:33:02.634Z,97462.31
2023-11-24T14:36:08.129Z,97463.00
2023-11-24T14:39:32.905Z,97457.66
2023-11-24T14:42:35.328Z,97461.41
2023-11-24T14:45:39.095Z,97464.69
2023-11-24T14:48:42.500Z,97461.88
2023-11-24T14:51:46.279Z,97466.16
2023-11-24T14:54:52.888Z,97463.97
2023-11-24T14:57:57.242Z,97478.06
2023-11-24T15:01:02.651Z,97480.50
2023-11-24T15:04:05.739Z,97488.13
2023-11-24T15:07:09.841Z,97475.88
2023-11-24T15:10:12.798Z,97467.88
2023-11-24T15:13:22.568Z,97469.81
2023-11-24T15:16:30.124Z,97470.50
2023-11-24T15:19:36.112Z,97463.06
2023-11-24T15:22:38.900Z,97457.38
2023-11-24T15:25:54.632Z,97462.34
2023-11-24T15:28:57.426Z,97478.38
2023-11-24T15:31:59.864Z,97474.03
2023-11-24T15:35:02.912Z,97458.06
2023-11-24T15:38:05.322Z,97453.53
2023-11-24T15:41:07.971Z,97439.09
2023-11-24T15:44:10.392Z,97432.81
2023-11-24T15:47:12.756Z,97447.56
2023-11-24T15:50:15.931Z,97448.78
2023-11-24T15:53:23.231Z,97468.69
2023-11-24T15:56:32.603Z,97480.84
2023-11-24T15:59:42.057Z,97479.09
2023-11-24T16:02:44.576Z,97469.88
2023-11-24T16:05:52.976Z,97462.22
2023-11-24T16:08:56.664Z,97454.09
2023-11-24T16:12:05.854Z,97458.53
2023-11-24T16:15:16.970Z,97440.81
2023-11-24T16:18:23.248Z,97429.34
2023-11-24T16:21:32.181Z,97441.13
2023-11-24T16:24:34.697Z,97449.25
2023-11-24T16:27:41.377Z,97450.84
2023-11-24T16:30:51.106Z,97457.09
2023-11-24T16:33:56.476Z,97446.81
2023-11-24T16:36:59.093Z,97447.03
2023-11-24T16:40:01.977Z,97462.94
2023-11-24T16:43:04.564Z,97490.53
2023-11-24T16:46:08.555Z,97488.97
2023-11-24T16:49:12.087Z,97476.88
2023-11-24T16:52:15.345Z,97483.91
2023-11-24T16:55:18.239Z,97464.13
2023-11-24T16:58:20.745Z,97482.06
2023-11-24T17:01:23.755Z,97478.75
2023-11-24T17:04:30.921Z,97468.63
2023-11-24T17:07:33.288Z,97454.56
2023-11-24T17:10:46.992Z,97422.50
2023-11-24T17:13:49.585Z,97435.97
2023-11-24T17:16:52.485Z,97453.91
2023-11-24T17:19:55.520Z,97457.13
2023-11-24T17:22:57.882Z,97454.31
2023-11-24T17:26:01.077Z,97450.78
2023-11-24T17:29:03.709Z,97440.56
2023-11-24T17:32:06.561Z,97418.47
2023-11-24T17:35:13.656Z,97430.91
2023-11-24T17:38:19.574Z,97429.25
2023-11-24T17:41:25.102Z,97432.47
2023-11-24T17:44:27.472Z,97442.41
2023-11-24T17:47:31.289Z,97450.06
2023-11-24T17:50:33.738Z,97437.63
2023-11-24T17:53:36.869Z,97395.84
2023-11-24T17:56:39.474Z,97405.63
2023-11-24T17:59:41.814Z,97408.06
2023-11-24T18:02:44.914Z,97407.50
2023-11-24T18:05:47.305Z,97406.28
2023-11-24T18:08:49.705Z,97415.66
2023-11-24T18:11:52.091Z,97419.44
2023-11-24T18:14:55.768Z,97414.03
2023-11-24T18:17:58.346Z,97423.25
2023-11-24T18:21:00.799Z,97422.06
2023-11-24T18:24:03.437Z,97442.22
2023-11-24T18:27:06.482Z,97441.38
2023-11-24T18:30:10.993Z,97437.31
2023-11-24T18:33:13.956Z,97439.13
2023-11-24T18:36:17.435Z,97424.03
2023-11-24T18:39:20.428Z,97408.75
2023-11-24T18:42:24.154Z,97397.97
2023-11-24T18:45:26.627Z,97393.91
2023-11-24T18:48:29.753Z,97389.63
2023-11-24T18:51:33.280Z,97409.22
2023-11-24T18:54:35.645Z,97383.59
2023-11-24T18:57:38.183Z,97369.50
2023-11-24T19:00:40.772Z,97371.75
2023-11-24T19:03:43.126Z,97369.38
2023-11-24T19:06:46.470Z,97374.28
2023-11-24T19:09:55.239Z,97362.78
2023-11-24T19:12:57.756Z,97352.94
2023-11-24T19:16:02.074Z,97360.53
2023-11-24T19:19:04.554Z,97367.94
2023-11-24T19:22:09.019Z,97384.56
2023-11-24T19:25:13.893Z,97396.06
2023-11-24T19:28:19.917Z,97401.03
2023-11-24T19:31:22.508Z,97410.19
2023-11-24T19:34:30.506Z,97403.47
2023-11-24T19:37:33.558Z,97402.06
2023-11-24T19:40:41.352Z,97402.63
2023-11-24T19:43:44.920Z,97409.91
2023-11-24T19:46:50.086Z,97435.03
2023-11-24T19:49:53.475Z,97453.13
2023-11-24T19:52:56.260Z,97462.28
2023-11-24T19:55:59.124Z,97459.53
2023-11-24T19:59:02.917Z,97451.25
2023-11-24T20:02:06.212Z,97439.19
2023-11-24T20:05:11.861Z,97413.47
2023-11-24T20:08:14.199Z,97408.53
2023-11-24T20:11:17.381Z,97426.94
2023-11-24T20:14:19.885Z,97432.28
2023-11-24T20:17:22.356Z,97426.91
2023-11-24T20:20:24.729Z,97433.34
2023-11-24T20:23:28.920Z,97436.16
2023-11-24T20:26:31.339Z,97425.63
2023-11-24T20:29:33.705Z,97401.63
2023-11-24T20:32:36.206Z,97403.63
2023-11-24T20:35:38.709Z,97387.41
2023-11-24T20:38:41.217Z,97382.53
2023-11-24T20:41:43.672Z,97389.25
2023-11-24T20:44:46.833Z,97381.16
2023-11-24T20:47:52.882Z,97365.38
2023-11-24T20:50:55.467Z,97354.69
2023-11-24T20:53:57.831Z,97360.03
2023-11-24T20:57:00.931Z,97365.25
2023-11-24T21:00:05.230Z,97364.56
2023-11-24T21:03:09.150Z,97363.22
2023-11-24T21:06:13.907Z,97350.19
2023-11-24T21:09:16.526Z,97334.84
2023-11-24T21:12:19.098Z,97365.38
2023-11-24T21:15:21.475Z,97380.38
2023-11-24T21:18:28.472Z,97366.97
2023-11-24T21:21:31.558Z,97364.09
2023-11-24T21:24:34.167Z,97349.91
2023-11-24T21:27:36.845Z,97361.97
2023-11-24T21:30:44.534Z,97377.72
2023-11-24T21:33:48.473Z,97384.59
2023-11-24T21:36:50.950Z,97384.44
2023-11-24T21:40:01.661Z,97367.06
2023-11-24T21:43:04.239Z,97380.25
2023-11-24T21:46:06.917Z,97377.72
2023-11-24T21:49:09.557Z,97358.28
2023-11-24T21:52:12.110Z,97355.72
2023-11-24T21:55:14.837Z,97376.88
2023-11-24T21:58:18.803Z,97385.31
2023-11-24T22:01:22.252Z,97379.94
2023-11-24T22:04:24.898Z,97371.13
2023-11-24T22:07:27.344Z,97370.41
2023-11-24T22:10:32.215Z,97362.84
2023-11-24T22:13:34.841Z,97380.75
2023-11-24T22:16:37.480Z,97386.28
2023-11-24T22:19:40.271Z,97401.03
2023-11-24T22:22:42.807Z,97406.53
2023-11-24T22:25:45.229Z,97391.47
2023-11-24T22:28:47.536Z,97396.22
2023-11-24T22:31:50.057Z,97396.63
2023-11-24T22:34:52.382Z,97404.28
2023-11-24T22:37:54.879Z,97416.25
2023-11-24T22:40:57.231Z,97409.72
2023-11-24T22:43:59.597Z,97403.69
2023-11-24T22:47:02.136Z,97406.38
2023-11-24T22:50:07.568Z,97410.03
2023-11-24T22:53:09.959Z,97393.63
2023-11-24T22:56:26.664Z,97392.16
2023-11-24T22:59:29.362Z,97399.06
2023-11-24T23:02:31.967Z,97398.84
2023-11-24T23:05:39.008Z,97392.66
2023-11-24T23:08:41.402Z,97383.81
2023-11-24T23:11:43.731Z,97385.72
2023-11-24T23:14:46.259Z,97379.34
2023-11-24T23:17:49.451Z,97383.91
2023-11-24T23:20:52.414Z,97377.28
2023-11-24T23:23:56.470Z,97381.00
2023-11-24T23:26:58.961Z,97372.78
2023-11-24T23:30:01.351Z,97362.78
2023-11-24T23:33:13.050Z,97364.63
2023-11-24T23:36:20.280Z,97361.91
2023-11-24T23:39:22.475Z,97356.53
2023-11-24T23:42:28.164Z,97362.41
2023-11-24T23:45:33.578Z,97346.97
2023-11-24T23:48:36.226Z,97366.44
2023-11-24T23:51:38.520Z,97371.84
2023-11-24T23:54:40.940Z,97354.44
2023-11-24T23:57:43.346Z,97352.31
